createdAt,value
2019-04-11T00:01:34.238Z,16.40
2019-04-11T00:03:53.588Z,16.30
2019-04-11T00:06:23.464Z,16.30
2019-04-11T00:08:52.747Z,16.30
2019-04-11T00:11:22.452Z,16.20
2019-04-11T00:13:51.542Z,16.20
2019-04-11T00:16:21.175Z,16.20
2019-04-11T00:18:51.291Z,16.10
2019-04-11T00:21:20.410Z,16.10
2019-04-11T00:23:50.197Z,16.10
2019-04-11T00:26:20.081Z,16.10
2019-04-11T00:28:50.006Z,16.00
2019-04-11T00:31:18.929Z,15.90
2019-04-11T00:33:48.695Z,15.90
2019-04-11T00:36:17.705Z,15.80
2019-04-11T00:38:46.356Z,15.80
2019-04-11T00:41:15.510Z,15.80
2019-04-11T00:43:45.396Z,15.80
2019-04-11T00:46:14.362Z,15.70
2019-04-11T00:48:43.911Z,15.70
2019-04-11T00:51:13.884Z,15.70
2019-04-11T00:53:42.589Z,15.60
2019-04-11T00:56:12.420Z,15.60
2019-04-11T00:58:41.930Z,15.60
2019-04-11T01:01:11.410Z,15.60
2019-04-11T01:03:40.165Z,15.60
2019-04-11T01:06:10.041Z,15.50
2019-04-11T01:08:39.854Z,15.50
2019-04-11T01:11:09.882Z,15.50
2019-04-11T01:13:45.230Z,15.40
2019-04-11T01:16:20.217Z,15.40
2019-04-11T01:18:49.985Z,15.30
2019-04-11T01:21:19.941Z,15.30
2019-04-11T01:23:48.705Z,15.30
2019-04-11T01:26:19.072Z,15.20
2019-04-11T01:28:49.063Z,15.20
2019-04-11T01:31:19.726Z,15.10
2019-04-11T01:33:48.889Z,15.10
2019-04-11T01:36:18.541Z,15.10
2019-04-11T01:38:51.274Z,15.00
2019-04-11T01:41:20.526Z,15.00
2019-04-11T01:43:56.411Z,15.00
2019-04-11T01:46:20.175Z,15.00
2019-04-11T01:49:14.299Z,15.00
2019-04-11T01:51:43.340Z,14.90
2019-04-11T01:54:13.263Z,14.90
2019-04-11T01:56:42.191Z,14.80
2019-04-11T01:59:31.255Z,14.80
2019-04-11T02:02:39.407Z,14.70
2019-04-11T02:08:17.459Z,14.70
2019-04-11T02:10:59.337Z,14.60
2019-04-11T02:13:41.730Z,14.60
2019-04-11T02:16:23.070Z,14.60
2019-04-11T02:19:04.305Z,14.60
2019-04-11T02:21:46.172Z,14.50
2019-04-11T02:24:46.165Z,14.50
2019-04-11T02:27:28.506Z,14.40
2019-04-11T02:30:11.211Z,14.40
2019-04-11T02:32:42.681Z,14.40
2019-04-11T02:35:13.267Z,14.40
2019-04-11T02:38:00.993Z,14.30
2019-04-11T02:40:30.629Z,14.30
2019-04-11T02:43:00.318Z,14.20
2019-04-11T02:45:43.331Z,14.20
2019-04-11T02:48:01.572Z,14.20
2019-04-11T02:50:32.192Z,14.20
2019-04-11T02:53:02.712Z,14.20
2019-04-11T02:55:31.751Z,14.20
2019-04-11T02:58:20.579Z,14.20
2019-04-11T03:00:50.242Z,14.10
2019-04-11T03:03:20.901Z,14.10
2019-04-11T03:05:50.815Z,14.00
2019-04-11T03:08:21.972Z,14.00
2019-04-11T03:10:51.459Z,14.00
2019-04-11T03:13:21.067Z,14.00
2019-04-11T03:16:07.222Z,13.90
2019-04-11T03:18:59.190Z,13.90
2019-04-11T03:21:16.375Z,13.90
2019-04-11T03:23:43.805Z,13.80
2019-04-11T03:26:14.131Z,13.90
2019-04-11T03:28:46.809Z,13.90
2019-04-11T03:31:53.727Z,13.80
2019-04-11T03:39:05.715Z,13.80
2019-04-11T03:41:32.057Z,13.80
2019-04-11T03:43:57.703Z,13.80
2019-04-11T03:46:34.025Z,13.70
2019-04-11T03:49:22.625Z,13.60
2019-04-11T03:51:40.454Z,13.60
2019-04-11T03:54:09.848Z,13.60
2019-04-11T03:56:41.029Z,13.60
2019-04-11T03:59:12.393Z,13.50
2019-04-11T04:02:00.062Z,13.50
2019-04-11T04:04:49.376Z,13.60
2019-04-11T04:07:38.380Z,13.50
2019-04-11T04:10:25.630Z,13.40
2019-04-11T04:13:10.999Z,13.40
2019-04-11T04:18:58.453Z,13.40
2019-04-11T04:22:07.148Z,13.40
2019-04-11T04:24:56.157Z,13.30
2019-04-11T04:27:46.836Z,13.30
2019-04-11T04:30:18.092Z,13.30
2019-04-11T04:33:07.115Z,13.20
2019-04-11T04:35:36.717Z,13.20
2019-04-11T04:38:07.431Z,13.20
2019-04-11T04:40:50.982Z,13.20
2019-04-11T04:43:27.497Z,13.20
2019-04-11T04:46:13.594Z,13.20
2019-04-11T04:48:29.363Z,13.20
2019-04-11T04:51:03.335Z,13.20
2019-04-11T04:53:49.905Z,13.20
2019-04-11T04:56:24.015Z,13.20
2019-04-11T04:58:50.804Z,13.20
2019-04-11T05:01:21.753Z,13.20
2019-04-11T05:03:51.039Z,13.20
2019-04-11T05:06:40.692Z,13.20
2019-04-11T05:09:10.679Z,13.20
2019-04-11T05:11:40.016Z,13.20
2019-04-11T05:14:29.532Z,13.10
2019-04-11T05:17:19.246Z,13.10
2019-04-11T05:19:48.805Z,13.10
2019-04-11T05:22:17.585Z,13.10
2019-04-11T05:24:47.439Z,13.10
2019-04-11T05:27:17.452Z,13.10
2019-04-11T05:29:47.591Z,13.20
2019-04-11T05:32:16.501Z,13.10
2019-04-11T05:34:45.645Z,13.10
2019-04-11T05:37:15.312Z,13.20
2019-04-11T05:39:44.971Z,13.10
2019-04-11T05:42:17.767Z,13.20
2019-04-11T05:45:05.308Z,13.20
2019-04-11T05:47:55.567Z,13.10
2019-04-11T05:50:34.074Z,13.10
2019-04-11T05:53:05.487Z,13.20
2019-04-11T05:55:43.090Z,13.20
2019-04-11T05:58:12.746Z,13.30
2019-04-11T06:00:53.329Z,13.20
2019-04-11T06:03:23.885Z,13.30
2019-04-11T06:06:07.225Z,13.30
2019-04-11T06:08:36.101Z,13.20
2019-04-11T06:11:24.036Z,13.30
2019-04-11T06:14:05.689Z,13.30
2019-04-11T06:16:39.794Z,13.30
2019-04-11T06:19:23.358Z,13.40
2019-04-11T06:21:56.080Z,13.40
2019-04-11T06:24:56.539Z,13.40
2019-04-11T06:27:33.591Z,13.50
2019-04-11T06:30:21.139Z,13.50
2019-04-11T06:32:58.415Z,13.50
2019-04-11T06:36:05.755Z,13.70
2019-04-11T06:38:47.221Z,13.60
2019-04-11T06:41:34.936Z,13.60
2019-04-11T06:44:12.947Z,13.60
2019-04-11T06:47:02.236Z,13.70
2019-04-11T06:49:39.502Z,13.70
2019-04-11T06:52:08.733Z,13.80
2019-04-11T06:55:02.565Z,13.80
2019-04-11T06:57:32.116Z,13.90
2019-04-11T07:00:01.448Z,14.00
2019-04-11T07:02:32.027Z,14.00
2019-04-11T07:05:04.546Z,14.00
2019-04-11T07:07:35.991Z,14.10
2019-04-11T07:10:06.816Z,14.10
2019-04-11T07:12:41.294Z,14.10
2019-04-11T07:15:29.366Z,14.20
2019-04-11T07:18:18.333Z,14.20
2019-04-11T07:20:52.800Z,14.40
2019-04-11T07:23:59.823Z,14.60
2019-04-11T07:27:03.117Z,14.60
2019-04-11T07:29:56.542Z,14.40
2019-04-11T07:32:27.937Z,14.60
2019-04-11T07:35:39.822Z,14.50
2019-04-11T07:38:36.518Z,14.50
2019-04-11T07:41:24.345Z,14.50
2019-04-11T07:43:52.959Z,14.60
2019-04-11T07:46:39.073Z,14.50
2019-04-11T07:49:08.549Z,14.70
2019-04-11T07:51:48.514Z,14.80
2019-04-11T07:54:22.532Z,14.80
2019-04-11T07:56:58.696Z,14.90
2019-04-11T07:59:46.817Z,15.00
2019-04-11T08:02:35.519Z,15.20
2019-04-11T08:05:32.355Z,15.20
2019-04-11T08:08:21.406Z,15.30
2019-04-11T08:11:09.618Z,15.60
2019-04-11T08:14:22.775Z,15.60
2019-04-11T08:17:36.656Z,15.70
2019-04-11T08:20:19.310Z,15.70
2019-04-11T08:23:05.678Z,15.90
2019-04-11T08:25:53.724Z,15.90
2019-04-11T08:28:43.501Z,16.30
2019-04-11T08:31:53.842Z,16.70
2019-04-11T08:34:23.585Z,16.70
2019-04-11T08:37:12.035Z,16.80
2019-04-11T08:39:44.991Z,17.10
2019-04-11T08:42:52.850Z,17.40
2019-04-11T08:45:46.477Z,17.70
2019-04-11T08:48:37.228Z,18.00
2019-04-11T08:51:08.245Z,18.20
2019-04-11T08:56:56.254Z,18.90
2019-04-11T09:00:04.171Z,19.10
2019-04-11T09:03:01.803Z,19.40
2019-04-11T09:05:38.708Z,19.70
2019-04-11T09:08:32.650Z,20.10
2019-04-11T09:11:37.884Z,20.40
2019-04-11T09:14:22.219Z,20.60
2019-04-11T09:17:01.758Z,21.00
2019-04-11T09:19:45.345Z,21.20
2019-04-11T09:22:49.070Z,21.50
2019-04-11T09:25:43.609Z,21.80
2019-04-11T09:28:27.147Z,22.10
2019-04-11T09:31:21.398Z,22.40
2019-04-11T09:34:01.675Z,22.70
2019-04-11T09:37:03.057Z,22.90
2019-04-11T09:40:03.725Z,23.20
2019-04-11T09:43:07.450Z,23.40
2019-04-11T09:45:52.405Z,23.70
2019-04-11T09:48:44.322Z,24.00
2019-04-11T09:51:38.302Z,24.30
2019-04-11T09:54:32.449Z,24.60
2019-04-11T09:57:34.539Z,24.80
2019-04-11T10:00:22.962Z,25.10
2019-04-11T10:02:58.546Z,25.00
2019-04-11T10:05:35.155Z,24.70
2019-04-11T10:08:20.946Z,24.40
2019-04-11T10:11:08.028Z,24.50
2019-04-11T10:13:53.255Z,25.00
2019-04-11T10:16:53.805Z,25.40
2019-04-11T10:19:42.358Z,25.70
2019-04-11T10:22:40.380Z,26.00
2019-04-11T10:25:43.430Z,26.20
2019-04-11T10:28:25.748Z,26.50
2019-04-11T10:31:12.619Z,26.30
2019-04-11T10:34:19.620Z,26.00
2019-04-11T10:37:01.337Z,25.70
2019-04-11T10:40:01.849Z,25.40
2019-04-11T10:42:31.308Z,25.20
2019-04-11T10:45:25.122Z,25.20
2019-04-11T10:47:57.602Z,25.70
2019-04-11T10:50:44.473Z,26.40
2019-04-11T10:53:13.317Z,26.70
2019-04-11T10:56:10.681Z,27.20
2019-04-11T10:58:51.274Z,27.60
2019-04-11T11:01:37.952Z,28.00
2019-04-11T11:04:12.174Z,28.60
2019-04-11T11:06:41.975Z,28.70
2019-04-11T11:09:30.679Z,28.70
2019-04-11T11:12:19.078Z,28.40
2019-04-11T11:15:05.738Z,28.10
2019-04-11T11:18:34.965Z,27.70
2019-04-11T11:20:58.286Z,27.50
2019-04-11T11:23:42.845Z,27.30
2019-04-11T11:26:14.486Z,27.60
2019-04-11T11:28:48.965Z,27.70
2019-04-11T11:31:36.284Z,28.30
2019-04-11T11:34:07.193Z,28.70
2019-04-11T11:37:05.395Z,28.90
2019-04-11T11:39:52.077Z,30.20
2019-04-11T11:42:39.056Z,29.60
2019-04-11T11:45:16.020Z,29.30
2019-04-11T11:48:13.706Z,29.50
2019-04-11T11:50:39.741Z,29.30
2019-04-11T11:53:34.875Z,31.00
2019-04-11T11:56:05.385Z,32.50
2019-04-11T11:58:56.971Z,36.30
2019-04-11T12:01:24.048Z,36.90
2019-04-11T12:04:09.073Z,33.70
2019-04-11T12:06:38.871Z,31.70
2019-04-11T12:09:32.493Z,30.20
2019-04-11T12:12:06.495Z,29.40
2019-04-11T12:15:07.663Z,28.70
2019-04-11T12:17:55.958Z,28.10
2019-04-11T12:20:34.691Z,27.60
2019-04-11T12:23:07.387Z,27.00
2019-04-11T12:25:39.037Z,26.70
2019-04-11T12:28:29.733Z,26.40
2019-04-11T12:31:03.876Z,26.10
2019-04-11T12:33:54.294Z,25.90
2019-04-11T12:36:26.477Z,25.70
2019-04-11T12:39:28.665Z,25.50
2019-04-11T12:42:09.536Z,25.40
2019-04-11T12:44:46.228Z,25.20
2019-04-11T12:47:23.453Z,25.10
2019-04-11T12:50:29.120Z,25.00
2019-04-11T12:53:25.777Z,24.90
2019-04-11T12:56:08.801Z,24.80
2019-04-11T12:59:05.775Z,24.80
2019-04-11T13:01:52.358Z,24.80
2019-04-11T13:04:27.997Z,24.70
2019-04-11T13:07:33.742Z,24.80
2019-04-11T13:10:28.981Z,24.80
2019-04-11T13:13:19.717Z,25.00
2019-04-11T13:16:11.327Z,25.00
2019-04-11T13:18:56.581Z,25.20
2019-04-11T13:21:28.729Z,25.10
2019-04-11T13:24:31.711Z,25.00
2019-04-11T13:27:18.057Z,25.00
2019-04-11T13:30:06.054Z,24.80
2019-04-11T13:32:48.890Z,24.80
2019-04-11T13:35:39.711Z,24.90
2019-04-11T13:38:10.809Z,25.00
2019-04-11T13:41:01.439Z,25.10
2019-04-11T13:43:34.023Z,25.50
2019-04-11T13:46:20.469Z,26.40
2019-04-11T13:49:06.942Z,26.60
2019-04-11T13:51:55.266Z,26.70
2019-04-11T13:54:50.473Z,26.70
2019-04-11T13:57:56.765Z,26.40
2019-04-11T14:00:43.402Z,26.30
2019-04-11T14:03:43.925Z,26.10
2019-04-11T14:06:38.421Z,26.00
2019-04-11T14:09:16.089Z,26.10
2019-04-11T14:11:49.091Z,26.10
2019-04-11T14:14:21.090Z,25.90
2019-04-11T14:16:58.450Z,25.80
2019-04-11T14:19:52.451Z,25.50
2019-04-11T14:22:27.757Z,25.40
2019-04-11T14:25:31.272Z,25.20
2019-04-11T14:31:47.252Z,24.90
2019-04-11T14:34:54.306Z,24.80
2019-04-11T14:37:46.018Z,24.60
2019-04-11T14:41:01.631Z,24.60
2019-04-11T14:43:29.590Z,24.50
2019-04-11T14:46:23.319Z,24.40
2019-04-11T14:49:10.218Z,24.20
2019-04-11T14:52:17.275Z,24.00
2019-04-11T14:55:05.139Z,23.90
2019-04-11T14:57:56.022Z,23.80
2019-04-11T15:00:44.314Z,23.60
2019-04-11T15:03:51.598Z,23.40
2019-04-11T15:06:40.530Z,23.40
2019-04-11T15:09:47.591Z,23.40
2019-04-11T15:12:36.015Z,23.20
2019-04-11T15:15:24.509Z,23.10
2019-04-11T15:17:56.471Z,22.90
2019-04-11T15:20:33.830Z,22.90
2019-04-11T15:23:08.799Z,22.80
2019-04-11T15:26:01.054Z,22.60
2019-04-11T15:28:49.027Z,22.50
2019-04-11T15:31:59.511Z,22.30
2019-04-11T15:34:46.499Z,22.20
2019-04-11T15:37:53.538Z,22.10
2019-04-11T15:43:57.772Z,21.90
2019-04-11T15:46:47.904Z,21.80
2019-04-11T15:49:35.511Z,21.80
2019-04-11T15:52:23.895Z,21.70
2019-04-11T15:55:08.898Z,21.80
2019-04-11T15:57:42.904Z,21.70
2019-04-11T16:00:31.004Z,21.70
2019-04-11T16:03:05.115Z,21.70
2019-04-11T16:05:54.170Z,21.60
2019-04-11T16:08:54.129Z,21.50
2019-04-11T16:11:53.783Z,21.50
2019-04-11T16:14:30.843Z,21.50
2019-04-11T16:17:18.623Z,21.40
2019-04-11T16:20:26.464Z,21.30
2019-04-11T16:23:14.086Z,21.20
2019-04-11T16:25:45.866Z,21.20
2019-04-11T16:28:35.817Z,21.10
2019-04-11T16:31:28.066Z,21.00
2019-04-11T16:34:31.307Z,20.90
2019-04-11T16:37:03.003Z,20.90
2019-04-11T16:39:52.069Z,20.80
2019-04-11T16:42:40.809Z,20.80
2019-04-11T16:45:40.710Z,20.60
2019-04-11T16:48:09.662Z,20.50
2019-04-11T16:50:38.566Z,20.50
2019-04-11T16:53:10.448Z,20.50
2019-04-11T16:55:42.048Z,20.40
2019-04-11T16:58:08.727Z,20.40
2019-04-11T17:00:37.389Z,20.30
2019-04-11T17:03:06.039Z,20.40
2019-04-11T17:05:36.334Z,20.40
2019-04-11T17:08:14.063Z,20.30
2019-04-11T17:10:59.439Z,20.20
2019-04-11T17:13:28.999Z,20.20
2019-04-11T17:16:00.116Z,20.20
2019-04-11T17:18:29.012Z,20.10
2019-04-11T17:20:57.899Z,20.10
2019-04-11T17:23:26.622Z,20.00
2019-04-11T17:25:55.234Z,20.00
2019-04-11T17:28:27.970Z,20.00
2019-04-11T17:30:56.732Z,20.00
2019-04-11T17:33:28.559Z,19.90
2019-04-11T17:35:56.450Z,19.80
2019-04-11T17:38:25.473Z,19.80
2019-04-11T17:40:54.443Z,19.70
2019-04-11T17:43:23.745Z,19.70
2019-04-11T17:45:56.902Z,19.60
2019-04-11T17:48:23.791Z,19.60
2019-04-11T17:50:52.521Z,19.60
2019-04-11T17:53:22.630Z,19.60
2019-04-11T17:55:54.272Z,19.50
2019-04-11T17:58:27.004Z,19.40
2019-04-11T18:01:00.197Z,19.40
2019-04-11T18:03:28.364Z,19.40
2019-04-11T18:05:57.122Z,19.30
2019-04-11T18:08:25.886Z,19.30
2019-04-11T18:10:55.998Z,19.20
2019-04-11T18:13:25.432Z,19.20
2019-04-11T18:15:54.183Z,19.10
2019-04-11T18:18:23.231Z,19.10
2019-04-11T18:20:52.650Z,19.10
2019-04-11T18:23:21.568Z,19.00
2019-04-11T18:25:51.139Z,19.00
2019-04-11T18:28:21.971Z,19.00
2019-04-11T18:30:53.723Z,18.90
2019-04-11T18:33:22.313Z,18.80
2019-04-11T18:35:51.300Z,18.80
2019-04-11T18:38:20.984Z,18.80
2019-04-11T18:40:50.149Z,18.80
2019-04-11T18:43:18.873Z,18.80
2019-04-11T18:45:47.867Z,18.80
2019-04-11T18:48:16.916Z,18.70
2019-04-11T18:50:45.761Z,18.70
2019-04-11T18:53:14.523Z,18.70
2019-04-11T18:55:43.396Z,18.60
2019-04-11T18:58:12.565Z,18.50
2019-04-11T19:00:41.361Z,18.50
2019-04-11T19:03:10.418Z,18.50
2019-04-11T19:05:42.796Z,18.50
2019-04-11T19:08:12.913Z,18.50
2019-04-11T19:10:42.924Z,18.40
2019-04-11T19:13:11.392Z,18.40
2019-04-11T19:15:40.125Z,18.30
2019-04-11T19:18:09.072Z,18.30
2019-04-11T19:20:37.806Z,18.20
2019-04-11T19:23:08.031Z,18.20
2019-04-11T19:25:37.356Z,18.20
2019-04-11T19:28:06.103Z,18.20
2019-04-11T19:30:34.836Z,18.10
2019-04-11T19:33:03.574Z,18.10
2019-04-11T19:35:32.262Z,18.10
2019-04-11T19:38:00.966Z,18.10
2019-04-11T19:40:30.586Z,18.00
2019-04-11T19:42:59.379Z,18.00
2019-04-11T19:45:31.873Z,18.00
2019-04-11T19:48:00.645Z,17.90
2019-04-11T19:50:29.849Z,17.90
2019-04-11T19:53:02.603Z,17.90
2019-04-11T19:55:49.030Z,17.90
2019-04-11T19:58:19.629Z,17.80
2019-04-11T20:00:53.047Z,17.70
2019-04-11T20:03:21.837Z,17.70
2019-04-11T20:05:50.223Z,17.70
2019-04-11T20:08:18.951Z,17.70
2019-04-11T20:10:47.675Z,17.70
2019-04-11T20:13:16.459Z,17.60
2019-04-11T20:15:46.011Z,17.60
2019-04-11T20:18:15.200Z,17.60
2019-04-11T20:20:44.220Z,17.60
2019-04-11T20:23:13.327Z,17.60
2019-04-11T20:25:46.271Z,17.50
2019-04-11T20:28:12.610Z,17.50
2019-04-11T20:30:41.931Z,17.50
2019-04-11T20:33:10.985Z,17.50
2019-04-11T20:35:40.608Z,17.50
2019-04-11T20:38:09.500Z,17.40
2019-04-11T20:40:39.308Z,17.30
2019-04-11T20:43:10.103Z,17.30
2019-04-11T20:45:39.930Z,17.20
2019-04-11T20:48:09.403Z,17.30
2019-04-11T20:50:38.504Z,17.30
2019-04-11T20:53:12.621Z,17.20
2019-04-11T20:55:39.341Z,17.20
2019-04-11T20:58:10.366Z,17.10
2019-04-11T21:00:50.461Z,17.20
2019-04-11T21:03:11.416Z,17.10
2019-04-11T21:05:40.283Z,17.10
2019-04-11T21:08:09.017Z,17.10
2019-04-11T21:10:37.860Z,17.10
2019-04-11T21:13:07.738Z,17.10
2019-04-11T21:15:36.592Z,17.00
2019-04-11T21:18:05.563Z,17.00
2019-04-11T21:20:34.380Z,17.00
2019-04-11T21:23:03.663Z,16.90
2019-04-11T21:25:32.575Z,16.90
2019-04-11T21:28:01.630Z,16.90
2019-04-11T21:30:31.185Z,16.90
2019-04-11T21:33:01.172Z,16.80
2019-04-11T21:35:30.985Z,16.80
2019-04-11T21:38:01.068Z,16.80
2019-04-11T21:40:30.027Z,16.80
2019-04-11T21:42:59.649Z,16.70
2019-04-11T21:45:29.289Z,16.70
2019-04-11T21:47:58.435Z,16.70
2019-04-11T21:50:27.872Z,16.70
2019-04-11T21:52:56.899Z,16.70
2019-04-11T21:55:26.382Z,16.60
2019-04-11T21:57:56.054Z,16.70
2019-04-11T22:00:33.823Z,16.60
2019-04-11T22:03:02.719Z,16.60
2019-04-11T22:05:32.400Z,16.60
2019-04-11T22:08:03.707Z,16.60
2019-04-11T22:10:31.908Z,16.50
2019-04-11T22:13:01.187Z,16.50
2019-04-11T22:15:30.364Z,16.40
2019-04-11T22:17:59.260Z,16.40
2019-04-11T22:20:27.995Z,16.50
2019-04-11T22:22:57.498Z,16.40
2019-04-11T22:25:26.390Z,16.40
2019-04-11T22:27:55.236Z,16.40
2019-04-11T22:30:25.337Z,16.40
2019-04-11T22:33:13.399Z,16.40
2019-04-11T22:35:42.163Z,16.30
2019-04-11T22:38:10.923Z,16.20
2019-04-11T22:40:39.711Z,16.20
2019-04-11T22:43:09.057Z,16.20
2019-04-11T22:45:38.430Z,16.30
2019-04-11T22:48:08.807Z,16.30
2019-04-11T22:50:40.758Z,16.20
2019-04-11T22:53:12.830Z,16.20
2019-04-11T22:55:41.330Z,16.20
2019-04-11T22:58:13.962Z,16.10
2019-04-11T23:00:45.126Z,16.10
2019-04-11T23:03:49.059Z,16.10
2019-04-11T23:06:18.072Z,16.00
2019-04-11T23:08:48.963Z,15.90
2019-04-11T23:11:18.439Z,16.00
2019-04-11T23:13:47.768Z,16.00
2019-04-11T23:16:16.544Z,16.00
2019-04-11T23:18:45.995Z,15.90
2019-04-11T23:21:15.415Z,15.90
2019-04-11T23:23:44.978Z,15.90
2019-04-11T23:26:14.345Z,16.00
2019-04-11T23:28:45.851Z,15.90
2019-04-11T23:31:14.639Z,15.80
2019-04-11T23:33:44.501Z,15.80
2019-04-11T23:36:13.243Z,15.80
2019-04-11T23:38:42.375Z,15.80
2019-04-11T23:41:11.684Z,15.80
2019-04-11T23:43:40.506Z,15.80
2019-04-11T23:46:09.602Z,15.70
2019-04-11T23:48:38.372Z,15.80
2019-04-11T23:51:07.200Z,15.70
2019-04-11T23:53:36.010Z,15.70
2019-04-11T23:56:05.008Z,15.70
2019-04-11T23:58:34.291Z,15.60
